Time;durP1;ratioP1;P1;durP2;ratioP2;P2;SDS_P1;SDS_P2;PMS_P1;PMS_P2;Temp;Humidity;BMP_temperature;BMP_pressure;BME280_temperature;BME280_humidity;BME280_pressure;Samples;Min_cycle;Max_cycle;Signal;HPM_P1;HPM_P2
2022/09/05 00:00:08;;;;;;;7.03;3.50;;;21.80;57.80;;;;;;5073555;28;20086;-67
2022/09/05 00:03:07;;;;;;;7.50;3.38;;;21.80;57.90;;;;;;5086476;28;20059;-67
2022/09/05 00:06:04;;;;;;;8.07;3.80;;;21.80;58.00;;;;;;5094663;28;20032;-67
2022/09/05 00:08:36;;;;;;;7.13;3.50;;;21.80;58.00;;;;;;5084458;28;20020;-67
2022/09/05 00:11:31;;;;;;;6.88;3.78;;;21.80;58.00;;;;;;5090289;28;20444;-67
2022/09/05 00:14:17;;;;;;;7.20;3.45;;;21.70;58.00;;;;;;5067104;28;20028;-67
2022/09/05 00:16:56;;;;;;;6.28;3.15;;;21.70;58.00;;;;;;5095524;28;20476;-67
2022/09/05 00:19:45;;;;;;;9.18;4.00;;;21.70;58.10;;;;;;5093684;28;20028;-64
2022/09/05 00:22:31;;;;;;;7.07;3.35;;;21.70;58.20;;;;;;5068135;28;20111;-66
2022/09/05 00:25:11;;;;;;;7.03;3.22;;;21.70;58.40;;;;;;5093782;28;20047;-67
2022/09/05 00:28:01;;;;;;;8.52;3.42;;;21.70;58.50;;;;;;5082564;28;20020;-67
2022/09/05 00:30:56;;;;;;;6.75;3.28;;;21.60;58.50;;;;;;5093580;28;20024;-67
2022/09/05 00:33:51;;;;;;;7.53;3.45;;;21.60;58.50;;;;;;5081272;28;20032;-67
2022/09/05 00:36:52;;;;;;;7.00;3.42;;;21.60;58.60;;;;;;5084293;28;20361;-67
2022/09/05 00:39:18;;;;;;;;;;;21.60;58.60;;;;;;5095692;28;20035;-67
2022/09/05 00:41:50;;;;;;;6.45;3.35;;;21.60;58.60;;;;;;5090067;28;19908;-67
2022/09/05 00:44:19;;;;;;;6.28;3.40;;;21.50;58.70;;;;;;5095403;28;20040;-67
2022/09/05 00:47:12;;;;;;;7.03;3.42;;;21.50;58.70;;;;;;5077346;28;20024;-67
2022/09/05 00:49:43;;;;;;;6.88;3.35;;;21.50;58.80;;;;;;5092772;28;20028;-67
2022/09/05 00:52:12;;;;;;;;;;;21.50;59.00;;;;;;5072861;28;20028;-67
2022/09/05 00:55:13;;;;;;;6.78;3.33;;;21.40;58.90;;;;;;5095053;28;19915;-67
2022/09/05 00:58:14;;;;;;;6.63;3.73;;;21.40;59.10;;;;;;5079093;28;20028;-67
2022/09/05 01:01:00;;;;;;;7.30;3.80;;;21.40;59.20;;;;;;5074641;28;20032;-67
2022/09/05 01:03:49;;;;;;;7.53;3.83;;;21.40;59.30;;;;;;5094368;28;20036;-67
2022/09/05 01:06:32;;;;;;;7.35;3.72;;;21.40;59.40;;;;;;5093307;28;20039;-67
2022/09/05 01:09:20;;;;;;;7.28;3.65;;;21.40;59.50;;;;;;5080333;28;20120;-67
2022/09/05 01:12:24;;;;;;;7.75;3.38;;;21.40;59.60;;;;;;5078907;28;20154;-67
2022/09/05 01:15:26;;;;;;;7.28;3.78;;;21.30;59.60;;;;;;5089473;28;20085;-67
2022/09/05 01:18:23;;;;;;;7.53;3.40;;;21.30;59.70;;;;;;4992571;28;20053;-67
2022/09/05 01:21:17;;;;;;;7.75;3.53;;;21.30;59.80;;;;;;4991706;28;20754;-67
2022/09/05 01:24:08;;;;;;;6.28;3.50;;;21.20;59.90;;;;;;4976939;28;20027;-67
2022/09/05 01:26:58;;;;;;;6.28;3.60;;;21.20;60.00;;;;;;5003341;28;20037;-67
2022/09/05 01:29:42;;;;;;;7.70;4.13;;;21.20;60.20;;;;;;4992912;28;20030;-67
2022/09/05 01:32:16;;;;;;;6.40;3.63;;;21.20;60.20;;;;;;4984046;28;20041;-67
2022/09/05 01:35:13;;;;;;;7.13;3.83;;;21.20;60.30;;;;;;4992745;28;20162;-67
2022/09/05 01:37:53;;;;;;;8.60;4.05;;;21.20;60.40;;;;;;4993370;28;20022;-67
2022/09/05 01:40:40;;;;;;;7.93;3.88;;;21.20;60.60;;;;;;4992585;28;20142;-67
2022/09/05 01:43:24;;;;;;;8.30;3.88;;;21.20;60.70;;;;;;4991337;28;20035;-67
2022/09/05 01:46:20;;;;;;;7.20;4.10;;;21.10;60.80;;;;;;4992396;28;20439;-67
2022/09/05 01:48:54;;;;;;;8.80;3.92;;;21.10;60.90;;;;;;4993409;28;20118;-68
2022/09/05 01:51:33;;;;;;;7.20;4.00;;;21.10;61.10;;;;;;4990466;28;20053;-65
2022/09/05 01:54:18;;;;;;;7.03;4.07;;;21.00;61.20;;;;;;5065222;28;20135;-65
2022/09/05 01:56:59;;;;;;;8.57;4.55;;;21.10;61.40;;;;;;5080019;28;20073;-65
2022/09/05 01:59:50;;;;;;;7.03;4.38;;;21.00;61.40;;;;;;5093410;28;20422;-64
2022/09/05 02:02:31;;;;;;;7.28;4.03;;;21.00;61.50;;;;;;5091573;28;20039;-66
2022/09/05 02:05:25;;;;;;;7.20;4.07;;;21.00;61.60;;;;;;5076127;28;20342;-66
2022/09/05 02:08:28;;;;;;;7.53;4.53;;;21.00;61.70;;;;;;5093530;28;20398;-66
2022/09/05 02:11:09;;;;;;;6.72;4.13;;;21.00;61.80;;;;;;5090757;28;20433;-66
2022/09/05 02:13:35;;;;;;;9.05;4.97;;;20.90;62.00;;;;;;5081222;28;20043;-66
2022/09/05 02:16:22;;;;;;;7.88;4.88;;;20.90;62.00;;;;;;5094628;28;20448;-66
2022/09/05 02:19:11;;;;;;;7.68;4.68;;;20.90;62.20;;;;;;5091968;28;20039;-66
2022/09/05 02:22:08;;;;;;;8.88;5.10;;;20.90;62.30;;;;;;5075582;28;20020;-66
2022/09/05 02:24:42;;;;;;;9.77;4.93;;;20.90;62.30;;;;;;5095570;28;20028;-66
2022/09/05 02:27:37;;;;;;;9.00;5.57;;;20.90;62.50;;;;;;5092390;28;20024;-66
2022/09/05 02:30:04;;;;;;;7.68;5.22;;;20.90;62.60;;;;;;5071173;28;20024;-66
2022/09/05 02:32:36;;;;;;;8.20;4.95;;;20.90;62.70;;;;;;5095638;28;20071;-66
2022/09/05 02:35:35;;;;;;;10.10;5.40;;;20.80;62.80;;;;;;5096406;28;20048;-66
2022/09/05 02:38:30;;;;;;;8.82;5.30;;;20.90;62.90;;;;;;5097947;28;20026;-66
2022/09/05 02:41:24;;;;;;;8.48;5.43;;;20.90;63.00;;;;;;5090598;28;20170;-67
2022/09/05 02:44:09;;;;;;;9.20;5.40;;;20.80;63.00;;;;;;5090278;28;20389;-67
2022/09/05 02:46:49;;;;;;;9.70;5.68;;;20.80;63.20;;;;;;5093970;28;20027;-66
2022/09/05 02:49:30;;;;;;;9.80;5.73;;;20.80;63.30;;;;;;5097482;28;20020;-67
2022/09/05 02:52:12;;;;;;;10.27;5.18;;;20.80;63.30;;;;;;5090917;28;20039;-66
2022/09/05 02:54:42;;;;;;;7.82;5.07;;;20.80;63.40;;;;;;5078035;28;20558;-66
2022/09/05 02:57:26;;;;;;;8.98;5.50;;;20.70;63.50;;;;;;5089213;28;20035;-66
2022/09/05 03:00:16;;;;;;;7.78;5.07;;;20.70;63.60;;;;;;5096005;28;20110;-67
2022/09/05 03:03:02;;;;;;;8.35;5.65;;;20.70;63.70;;;;;;5090863;28;20109;-66
2022/09/05 03:05:42;;;;;;;9.02;5.40;;;20.70;63.80;;;;;;5095925;28;20429;-66
2022/09/05 03:08:25;;;;;;;9.90;5.35;;;20.70;63.80;;;;;;5097687;28;20032;-67
2022/09/05 03:11:26;;;;;;;8.95;5.93;;;20.70;63.90;;;;;;5064711;28;20028;-67
2022/09/05 03:14:17;;;;;;;10.65;5.93;;;20.70;63.90;;;;;;5063654;28;20424;-66
2022/09/05 03:17:03;;;;;;;8.77;5.97;;;20.60;63.90;;;;;;5080614;28;20460;-66
2022/09/05 03:19:47;;;;;;;9.15;5.97;;;20.60;64.00;;;;;;5072049;28;20130;-67
2022/09/05 03:22:31;;;;;;;10.48;6.03;;;20.60;64.10;;;;;;5087671;28;20037;-66
2022/09/05 03:25:27;;;;;;;9.70;5.90;;;20.60;64.20;;;;;;5082784;28;20039;-66
2022/09/05 03:28:04;;;;;;;9.57;6.32;;;20.60;64.30;;;;;;5091630;28;20039;-67
2022/09/05 03:30:51;;;;;;;11.05;6.57;;;20.60;64.40;;;;;;5088538;28;20030;-67
2022/09/05 03:33:35;;;;;;;9.40;6.35;;;20.50;64.50;;;;;;5087273;28;20042;-66
2022/09/05 03:36:22;;;;;;;9.40;6.28;;;20.50;64.50;;;;;;5090892;28;20044;-66
2022/09/05 03:38:48;;;;;;;8.82;6.13;;;20.50;64.70;;;;;;5091476;28;20044;-66
2022/09/05 03:41:39;;;;;;;10.73;6.07;;;20.50;64.70;;;;;;5085362;28;20024;-67
2022/09/05 03:44:09;;;;;;;9.77;6.40;;;20.50;64.80;;;;;;5089686;28;20045;-67
2022/09/05 03:46:59;;;;;;;9.40;6.47;;;20.50;64.90;;;;;;5085715;28;20140;-66
2022/09/05 03:50:02;;;;;;;9.48;6.15;;;20.50;64.90;;;;;;5090888;28;20069;-66
2022/09/05 03:52:55;;;;;;;8.90;6.72;;;20.50;65.00;;;;;;5073051;28;20039;-66
2022/09/05 03:55:50;;;;;;;9.68;6.47;;;20.40;65.00;;;;;;5087622;28;20386;-66
2022/09/05 03:58:40;;;;;;;9.80;6.68;;;20.40;65.10;;;;;;5096118;28;20085;-67
2022/09/05 04:01:22;;;;;;;10.50;6.88;;;20.40;65.10;;;;;;5091718;28;20028;-66
2022/09/05 04:03:55;;;;;;;8.57;6.18;;;20.40;65.20;;;;;;5088278;28;20410;-66
2022/09/05 04:06:52;;;;;;;10.18;6.65;;;20.40;65.30;;;;;;5078238;28;20040;-66
2022/09/05 04:09:35;;;;;;;9.65;6.53;;;20.30;65.30;;;;;;5092535;28;20404;-66
2022/09/05 04:12:16;;;;;;;9.38;6.50;;;20.30;65.50;;;;;;5080553;28;20024;-66
2022/09/05 04:15:10;;;;;;;9.05;5.78;;;20.30;65.50;;;;;;5078730;28;20083;-67
2022/09/05 04:17:46;;;;;;;11.75;7.10;;;20.30;65.60;;;;;;5087791;28;20503;-66
2022/09/05 04:20:36;;;;;;;9.65;6.38;;;20.30;65.80;;;;;;5083911;28;20020;-66
2022/09/05 04:23:27;;;;;;;11.68;6.63;;;20.20;65.80;;;;;;5070944;28;20433;-66
2022/09/05 04:25:57;;;;;;;11.03;6.60;;;20.20;65.80;;;;;;5078832;28;20082;-66
2022/09/05 04:29:04;;;;;;;10.48;6.32;;;20.20;65.90;;;;;;5087458;28;20331;-67
2022/09/05 04:32:01;;;;;;;9.45;6.60;;;20.20;66.00;;;;;;5084089;28;20036;-66
2022/09/05 04:34:57;;;;;;;13.18;6.82;;;20.20;66.00;;;;;;5057042;28;20032;-67
2022/09/05 04:37:55;;;;;;;9.85;6.57;;;20.20;66.10;;;;;;5083612;28;20033;-66
2022/09/05 04:40:36;;;;;;;9.80;7.45;;;20.10;66.00;;;;;;5066509;28;20028;-66
2022/09/05 04:43:12;;;;;;;10.70;8.18;;;20.10;66.10;;;;;;5095197;28;20032;-66
2022/09/05 04:45:45;;;;;;;11.18;7.18;;;20.10;66.20;;;;;;5089634;28;20024;-66
2022/09/05 04:48:16;;;;;;;15.52;7.63;;;20.10;66.40;;;;;;5081902;28;20550;-66
2022/09/05 04:51:15;;;;;;;11.45;7.18;;;20.00;67.00;;;;;;5077180;28;20052;-66
2022/09/05 04:54:02;;;;;;;11.13;7.25;;;20.10;66.50;;;;;;5071713;28;20510;-66
2022/09/05 04:56:38;;;;;;;10.70;7.63;;;20.00;66.40;;;;;;5091723;28;20109;-67
2022/09/05 04:59:13;;;;;;;11.65;7.63;;;20.00;66.50;;;;;;5095340;28;20036;-67
2022/09/05 05:01:57;;;;;;;12.63;8.35;;;20.00;66.60;;;;;;5093878;28;20081;-67
2022/09/05 05:04:25;;;;;;;11.13;6.85;;;20.00;66.60;;;;;;5090682;28;20024;-67
2022/09/05 05:07:04;;;;;;;12.95;7.63;;;20.00;66.70;;;;;;5090530;28;20032;-67
2022/09/05 05:09:42;;;;;;;13.45;7.47;;;20.00;66.70;;;;;;5094797;28;20456;-66
2022/09/05 05:12:45;;;;;;;14.82;7.80;;;20.00;66.80;;;;;;5093907;28;20028;-67
2022/09/05 05:15:16;;;;;;;10.15;7.10;;;20.00;66.80;;;;;;5076732;28;20409;-67
2022/09/05 05:17:56;;;;;;;10.23;6.75;;;19.90;66.80;;;;;;5091581;28;20039;-67
2022/09/05 05:20:42;;;;;;;11.47;8.03;;;19.90;66.90;;;;;;5093947;28;20077;-67
2022/09/05 05:23:16;;;;;;;11.85;8.00;;;19.90;67.00;;;;;;5094665;28;20111;-67
2022/09/05 05:25:48;;;;;;;13.70;8.10;;;19.90;67.00;;;;;;5093327;28;20057;-67
2022/09/05 05:28:19;;;;;;;10.23;7.53;;;19.90;67.00;;;;;;5093122;28;20362;-67
2022/09/05 05:30:45;;;;;;;;;;;19.90;67.10;;;;;;5088521;28;20353;-67
2022/09/05 05:33:31;;;;;;;12.65;8.27;;;20.00;67.00;;;;;;5078658;28;19908;-67
2022/09/05 05:36:00;;;;;;;10.80;7.82;;;19.90;67.10;;;;;;5091827;28;21642;-67
2022/09/05 05:38:52;;;;;;;12.18;8.35;;;19.90;67.20;;;;;;5090215;28;20028;-67
2022/09/05 05:41:42;;;;;;;13.27;8.07;;;19.90;67.40;;;;;;5092118;28;20058;-68
2022/09/05 05:44:16;;;;;;;12.50;9.35;;;19.90;67.70;;;;;;5086347;28;20082;-68
2022/09/05 05:46:54;;;;;;;13.57;9.10;;;20.00;68.00;;;;;;5087504;28;20024;-68
2022/09/05 05:49:28;;;;;;;13.55;8.57;;;20.00;68.20;;;;;;5097134;28;20032;-67
2022/09/05 05:52:25;;;;;;;12.50;8.55;;;20.00;68.40;;;;;;5084489;28;20115;-68
2022/09/05 05:55:05;;;;;;;11.63;8.73;;;20.10;68.50;;;;;;5087752;28;20352;-68
2022/09/05 05:58:01;;;;;;;12.13;8.07;;;20.10;68.50;;;;;;5073731;28;20362;-67
2022/09/05 06:01:19;;;;;;;15.00;9.30;;;20.10;68.50;;;;;;5077849;28;20338;-66
2022/09/05 06:03:59;;;;;;;13.25;8.63;;;20.20;68.60;;;;;;5092609;28;20035;-66
2022/09/05 06:06:40;;;;;;;12.40;8.43;;;20.20;68.50;;;;;;5091174;28;20024;-66
2022/09/05 06:09:29;;;;;;;13.93;8.57;;;20.30;68.40;;;;;;5087974;28;20344;-66
2022/09/05 06:12:02;;;;;;;14.80;8.95;;;20.40;68.30;;;;;;5093308;28;20032;-66
2022/09/05 06:14:34;;;;;;;14.05;9.90;;;20.60;68.00;;;;;;5091219;28;20028;-66
2022/09/05 06:17:18;;;;;;;12.48;9.18;;;20.70;67.70;;;;;;5088206;28;20055;-67
2022/09/05 06:20:05;;;;;;;12.63;9.77;;;20.90;67.30;;;;;;5092883;28;20039;-66
2022/09/05 06:23:05;;;;;;;12.65;9.70;;;21.10;67.00;;;;;;5078920;28;20028;-67
2022/09/05 06:26:07;;;;;;;13.27;9.23;;;21.70;66.00;;;;;;5094500;28;20063;-67
2022/09/05 06:28:59;;;;;;;11.98;9.90;;;22.50;64.10;;;;;;5091383;28;20028;-67
2022/09/05 06:31:36;;;;;;;13.15;9.73;;;23.30;62.50;;;;;;5091301;28;20084;-67
2022/09/05 06:34:59;;;;;;;14.23;10.25;;;24.00;60.70;;;;;;5094711;28;20020;-66
2022/09/05 06:37:48;;;;;;;13.50;8.70;;;24.70;59.00;;;;;;4985412;28;20137;-67
2022/09/05 06:40:31;;;;;;;14.98;9.73;;;25.30;58.40;;;;;;4994344;28;20162;-67
2022/09/05 06:43:23;;;;;;;11.13;8.57;;;25.50;56.90;;;;;;5009101;28;20041;-66
2022/09/05 06:46:01;;;;;;;14.00;9.85;;;25.50;56.70;;;;;;4989384;28;20086;-67
2022/09/05 06:48:45;;;;;;;12.95;9.93;;;25.40;56.70;;;;;;5003908;28;20046;-67
2022/09/05 06:51:10;;;;;;;14.35;9.75;;;25.10;57.00;;;;;;4986567;28;20034;-67
2022/09/05 06:53:51;;;;;;;12.52;9.65;;;24.80;57.40;;;;;;5004221;28;20033;-67
2022/09/05 06:56:22;;;;;;;12.85;9.70;;;24.60;57.80;;;;;;4985786;28;20431;-67
2022/09/05 06:59:17;;;;;;;15.18;10.02;;;24.40;58.20;;;;;;4986292;28;20046;-67
2022/09/05 07:01:54;;;;;;;14.52;10.55;;;24.20;58.40;;;;;;5009504;28;20071;-67
2022/09/05 07:04:25;;;;;;;13.80;10.80;;;24.10;58.70;;;;;;4998058;28;20104;-67
2022/09/05 07:07:13;;;;;;;12.93;10.05;;;24.00;58.90;;;;;;5007982;28;20205;-67
2022/09/05 07:09:49;;;;;;;13.38;10.23;;;24.00;59.10;;;;;;4996230;28;20062;-68
2022/09/05 07:12:18;;;;;;;16.05;10.45;;;24.00;59.10;;;;;;5073047;28;20040;-68
2022/09/05 07:14:56;;;;;;;13.93;10.38;;;24.10;59.00;;;;;;5077286;28;20050;-67
2022/09/05 07:17:55;;;;;;;13.48;10.63;;;24.10;58.90;;;;;;5094826;28;20110;-67
2022/09/05 07:20:34;;;;;;;12.60;9.63;;;24.10;58.90;;;;;;5082450;28;20062;-67
2022/09/05 07:23:18;;;;;;;12.50;9.50;;;24.20;58.80;;;;;;5096540;28;20062;-67
2022/09/05 07:25:48;;;;;;;11.63;9.23;;;24.30;58.60;;;;;;5096314;28;20035;-67
2022/09/05 07:28:15;;;;;;;11.68;8.75;;;24.40;58.50;;;;;;5066305;28;20035;-67
2022/09/05 07:30:48;;;;;;;15.20;9.80;;;24.40;58.40;;;;;;5089798;28;20060;-67
2022/09/05 07:33:25;;;;;;;14.00;9.57;;;24.50;58.40;;;;;;5096381;28;20326;-67
2022/09/05 07:35:54;;;;;;;13.85;9.55;;;24.60;58.20;;;;;;5096418;28;20081;-67
2022/09/05 07:38:22;;;;;;;14.73;9.95;;;24.70;58.00;;;;;;5096268;28;20399;-67
2022/09/05 07:40:59;;;;;;;13.02;8.95;;;24.80;57.80;;;;;;5094458;28;20093;-68
2022/09/05 07:43:29;;;;;;;14.82;8.20;;;24.90;57.50;;;;;;5071205;28;20040;-67
2022/09/05 07:46:04;;;;;;;15.27;9.60;;;25.10;57.20;;;;;;5093929;28;20050;-68
2022/09/05 07:48:36;;;;;;;13.15;8.75;;;25.30;56.90;;;;;;5096143;28;20024;-68
2022/09/05 07:51:10;;;;;;;13.10;8.68;;;25.50;56.50;;;;;;5060390;28;20032;-68
2022/09/05 07:53:40;;;;;;;13.07;8.48;;;25.60;56.10;;;;;;5093594;28;20039;-68
2022/09/05 07:56:09;;;;;;;14.45;8.52;;;25.90;55.70;;;;;;5095740;28;20032;-68
2022/09/05 07:58:42;;;;;;;12.77;7.90;;;26.10;55.40;;;;;;5077985;28;20166;-67
2022/09/05 08:01:13;;;;;;;12.02;7.43;;;26.20;54.90;;;;;;5076688;28;20064;-67
2022/09/05 08:03:42;;;;;;;11.15;8.00;;;26.40;54.60;;;;;;5082647;28;20024;-67
2022/09/05 08:06:15;;;;;;;11.40;7.57;;;26.60;54.10;;;;;;5066780;28;20036;-67
2022/09/05 08:08:58;;;;;;;11.43;7.30;;;26.80;53.60;;;;;;5080325;28;20116;-67
2022/09/05 08:11:29;;;;;;;11.85;7.90;;;27.00;53.30;;;;;;5093140;28;20070;-67
2022/09/05 08:14:13;;;;;;;14.50;7.80;;;27.00;53.00;;;;;;5095899;28;20120;-67
2022/09/05 08:16:41;;;;;;;10.90;7.55;;;27.10;52.80;;;;;;5094696;28;20052;-67
2022/09/05 08:19:39;;;;;;;12.93;6.90;;;27.20;52.50;;;;;;5092850;28;20421;-67
2022/09/05 08:22:08;;;;;;;15.73;7.40;;;27.30;52.10;;;;;;5072094;28;20024;-68
2022/09/05 08:24:46;;;;;;;11.05;7.38;;;27.40;51.90;;;;;;5072232;28;20032;-66
2022/09/05 08:27:20;;;;;;;11.15;7.28;;;27.60;51.80;;;;;;5092976;28;20024;-65
2022/09/05 08:29:52;;;;;;;9.88;6.50;;;27.70;51.70;;;;;;5090587;28;20024;-66
2022/09/05 08:32:17;;;;;;;10.70;6.50;;;27.90;51.50;;;;;;5095348;28;20356;-65
2022/09/05 08:34:47;;;;;;;11.15;6.90;;;28.10;51.30;;;;;;5092112;28;20031;-65
2022/09/05 08:37:18;;;;;;;9.82;6.35;;;28.20;51.00;;;;;;5068143;28;20053;-66
2022/09/05 08:39:48;;;;;;;10.48;5.80;;;28.30;50.60;;;;;;5077553;28;20092;-66
2022/09/05 08:42:28;;;;;;;12.63;7.10;;;28.50;50.40;;;;;;5088671;28;20036;-66
2022/09/05 08:45:25;;;;;;;10.93;6.97;;;28.60;50.20;;;;;;5081420;28;20489;-66
2022/09/05 08:48:10;;;;;;;13.52;6.60;;;28.70;50.10;;;;;;5077251;28;20380;-66
2022/09/05 08:50:58;;;;;;;9.10;6.32;;;28.80;49.80;;;;;;5075522;28;20024;-66
2022/09/05 08:53:54;;;;;;;10.45;6.00;;;28.90;49.70;;;;;;5077455;28;20393;-66
2022/09/05 08:56:30;;;;;;;8.13;4.88;;;29.00;49.50;;;;;;5092843;28;20040;-66
2022/09/05 08:59:10;;;;;;;7.65;4.15;;;29.10;49.20;;;;;;5095908;28;20079;-66
2022/09/05 09:02:01;;;;;;;9.13;3.90;;;29.20;48.80;;;;;;5093369;28;20028;-66
2022/09/05 09:05:20;;;;;;;6.45;2.95;;;29.30;48.60;;;;;;5094568;28;20031;-66
2022/09/05 09:08:00;;;;;;;5.53;2.67;;;29.40;47.90;;;;;;5089560;28;20064;-67
2022/09/05 09:10:45;;;;;;;6.93;2.88;;;29.50;47.30;;;;;;5092182;28;20024;-67
2022/09/05 09:13:28;;;;;;;7.03;2.22;;;29.60;47.20;;;;;;5095051;28;20028;-67
2022/09/05 09:16:29;;;;;;;5.43;2.55;;;29.70;46.60;;;;;;5082089;28;20406;-67
2022/09/05 09:19:16;;;;;;;5.90;2.70;;;29.90;46.00;;;;;;5093377;28;20497;-67
2022/09/05 09:22:09;;;;;;;5.90;2.25;;;29.90;45.70;;;;;;5092750;28;20028;-66
2022/09/05 09:24:40;;;;;;;5.88;2.65;;;30.00;45.50;;;;;;5083006;28;20039;-66
2022/09/05 09:27:14;;;;;;;;;;;30.10;45.50;;;;;;5094752;28;20085;-67
2022/09/05 09:29:41;;;;;;;6.13;2.03;;;30.10;45.60;;;;;;5094401;28;19978;-67
2022/09/05 09:32:16;;;;;;;5.72;2.33;;;30.20;45.30;;;;;;5090538;28;20028;-66
2022/09/05 09:35:05;;;;;;;4.75;2.13;;;30.30;44.90;;;;;;5091431;28;20024;-66
2022/09/05 09:37:49;;;;;;;6.57;2.42;;;30.40;44.60;;;;;;5087973;28;20032;-67
2022/09/05 09:40:34;;;;;;;6.68;2.47;;;30.50;44.40;;;;;;5082634;28;20034;-67
2022/09/05 09:43:26;;;;;;;5.68;2.10;;;30.60;44.10;;;;;;5094428;28;20040;-67
2022/09/05 09:46:14;;;;;;;3.67;1.88;;;30.80;43.70;;;;;;5084000;28;20058;-67
2022/09/05 09:49:01;;;;;;;5.00;2.13;;;30.90;43.10;;;;;;5092821;28;20024;-67
2022/09/05 09:51:43;;;;;;;3.38;1.75;;;31.00;42.70;;;;;;5092403;28;20035;-67
2022/09/05 09:54:52;;;;;;;4.63;1.88;;;31.00;42.40;;;;;;5094370;28;20032;-67
2022/09/05 09:57:44;;;;;;;2.60;1.48;;;31.10;42.30;;;;;;5029838;28;20391;-67
2022/09/05 10:00:20;;;;;;;4.30;1.80;;;31.30;42.00;;;;;;5032217;28;20119;-67
2022/09/05 10:03:16;;;;;;;3.87;1.73;;;31.40;41.90;;;;;;5025048;28;20038;-67
2022/09/05 10:06:24;;;;;;;4.38;1.85;;;31.50;41.40;;;;;;5023549;28;20551;-67
2022/09/05 10:09:26;;;;;;;3.97;1.70;;;31.50;41.20;;;;;;5018588;28;20053;-67
2022/09/05 10:12:19;;;;;;;3.30;1.75;;;31.60;40.90;;;;;;5010469;28;20056;-67
2022/09/05 10:14:53;;;;;;;3.17;1.67;;;31.60;40.20;;;;;;5020078;28;20046;-67
2022/09/05 10:17:45;;;;;;;4.22;1.70;;;31.70;40.00;;;;;;5018217;28;20465;-67
2022/09/05 10:20:42;;;;;;;4.80;1.67;;;31.80;39.90;;;;;;5004517;28;20375;-67
2022/09/05 10:23:45;;;;;;;4.35;1.73;;;31.90;39.50;;;;;;5014795;28;20134;-67
2022/09/05 10:26:39;;;;;;;3.33;1.60;;;31.90;39.30;;;;;;5018015;28;20109;-67
2022/09/05 10:29:12;;;;;;;4.20;1.60;;;32.00;38.70;;;;;;5013554;28;20021;-67
2022/09/05 10:32:05;;;;;;;2.42;1.42;;;32.10;38.40;;;;;;5025132;28;20046;-67
2022/09/05 10:34:58;;;;;;;2.80;1.35;;;32.00;37.40;;;;;;5024641;28;21188;-67
2022/09/05 10:37:48;;;;;;;3.78;1.50;;;32.00;37.40;;;;;;5064611;28;20133;-67
2022/09/05 10:40:19;;;;;;;2.60;1.30;;;32.10;37.60;;;;;;5088022;28;20100;-67
2022/09/05 10:42:51;;;;;;;4.00;1.52;;;32.20;37.40;;;;;;5094840;28;20060;-67
2022/09/05 10:45:19;;;;;;;2.78;1.38;;;32.20;37.20;;;;;;5092016;28;20034;-67
2022/09/05 10:48:19;;;;;;;4.05;1.60;;;32.30;36.80;;;;;;5096973;28;20024;-67
2022/09/05 10:50:59;;;;;;;3.07;1.60;;;32.30;36.50;;;;;;5078803;28;20414;-67
2022/09/05 10:53:41;;;;;;;2.30;1.30;;;32.30;36.10;;;;;;5067440;28;20035;-67
2022/09/05 10:56:15;;;;;;;2.97;1.50;;;32.30;35.60;;;;;;5068284;28;20031;-67
2022/09/05 10:58:47;;;;;;;5.35;1.40;;;32.30;35.40;;;;;;5093120;28;20031;-67
2022/09/05 11:01:36;;;;;;;4.80;1.25;;;32.40;35.40;;;;;;5091508;28;20039;-68
2022/09/05 11:04:03;;;;;;;3.55;1.30;;;32.40;34.90;;;;;;5079459;28;20028;-68
2022/09/05 11:06:41;;;;;;;3.83;1.45;;;32.40;35.00;;;;;;5092666;28;20032;-67
2022/09/05 11:09:22;;;;;;;5.00;1.90;;;32.40;34.80;;;;;;5068247;28;20466;-67
2022/09/05 11:12:09;;;;;;;3.35;1.48;;;32.50;35.10;;;;;;5075895;28;20043;-67
2022/09/05 11:14:43;;;;;;;3.78;1.55;;;32.40;34.30;;;;;;5093283;28;20453;-68
2022/09/05 11:17:29;;;;;;;4.57;1.73;;;32.40;34.10;;;;;;5072615;28;20044;-67
2022/09/05 11:20:06;;;;;;;3.20;1.30;;;32.40;33.90;;;;;;5062377;28;20025;-68
2022/09/05 11:22:39;;;;;;;3.08;1.63;;;32.40;33.80;;;;;;5071166;28;20036;-68
2022/09/05 11:25:18;;;;;;;5.18;1.50;;;32.40;33.80;;;;;;5068477;28;20075;-68
2022/09/05 11:27:57;;;;;;;4.32;1.58;;;32.40;33.90;;;;;;5068414;28;20655;-68
2022/09/05 11:30:32;;;;;;;3.10;1.60;;;32.40;33.90;;;;;;5066417;28;20038;-68
2022/09/05 11:33:27;;;;;;;4.38;1.60;;;32.40;34.00;;;;;;5070312;28;20052;-67
2022/09/05 11:36:07;;;;;;;3.97;1.42;;;32.30;33.80;;;;;;5062586;28;20052;-68
2022/09/05 11:38:57;;;;;;;3.42;1.30;;;32.30;33.80;;;;;;5045949;28;20115;-69
2022/09/05 11:41:42;;;;;;;4.80;1.75;;;32.30;33.90;;;;;;5065838;28;20017;-68
2022/09/05 11:44:22;;;;;;;4.18;1.60;;;32.30;33.70;;;;;;5068417;28;20445;-68
2022/09/05 11:47:09;;;;;;;3.17;1.48;;;32.30;33.70;;;;;;5062391;28;20020;-68
2022/09/05 11:50:02;;;;;;;2.33;1.30;;;32.30;33.60;;;;;;5064155;28;20062;-68
2022/09/05 11:52:46;;;;;;;3.83;1.50;;;32.30;33.70;;;;;;5067736;28;20119;-69
2022/09/05 11:55:18;;;;;;;4.57;1.50;;;32.30;33.90;;;;;;5078646;28;20021;-69
2022/09/05 11:58:03;;;;;;;3.95;1.85;;;32.20;33.70;;;;;;5072247;28;20062;-69
2022/09/05 12:00:43;;;;;;;4.80;1.85;;;32.20;33.70;;;;;;5060756;28;20341;-69
2022/09/05 12:03:27;;;;;;;3.08;1.40;;;32.20;33.90;;;;;;5071609;28;20449;-69
2022/09/05 12:06:10;;;;;;;3.80;1.50;;;32.20;34.00;;;;;;5049944;28;20024;-69
2022/09/05 12:08:40;;;;;;;3.92;1.60;;;32.10;33.80;;;;;;5069645;28;20170;-69
2022/09/05 12:11:39;;;;;;;3.22;1.35;;;32.10;34.00;;;;;;5066592;28;20442;-69
2022/09/05 12:14:18;;;;;;;4.78;1.73;;;32.10;34.00;;;;;;5065515;28;20454;-69
2022/09/05 12:16:48;;;;;;;3.00;1.50;;;32.00;34.10;;;;;;5085066;28;20060;-69
2022/09/05 12:19:31;;;;;;;2.83;1.42;;;31.90;34.00;;;;;;5082433;28;20092;-69
2022/09/05 12:22:01;;;;;;;4.55;1.40;;;31.90;33.80;;;;;;5085809;28;20445;-69
2022/09/05 12:24:55;;;;;;;2.47;1.38;;;31.90;33.70;;;;;;5087938;28;20118;-69
2022/09/05 12:27:28;;;;;;;2.90;1.50;;;31.80;33.60;;;;;;5073997;28;20032;-69
2022/09/05 12:30:02;;;;;;;2.88;1.30;;;31.70;33.40;;;;;;5082526;28;20024;-70
2022/09/05 12:32:30;;;;;;;3.15;1.45;;;31.70;33.50;;;;;;5092066;28;20115;-69
2022/09/05 12:34:58;;;;;;;2.88;1.30;;;31.60;33.30;;;;;;5095300;28;20039;-69
2022/09/05 12:37:36;;;;;;;3.80;1.48;;;31.50;33.30;;;;;;5090750;28;20040;-69
2022/09/05 12:40:13;;;;;;;4.68;1.48;;;31.40;33.40;;;;;;5085189;28;20032;-69
2022/09/05 12:42:42;;;;;;;3.47;1.45;;;31.40;33.30;;;;;;5081290;28;20136;-69
2022/09/05 12:45:32;;;;;;;4.97;1.52;;;31.30;33.10;;;;;;5060720;28;20082;-69
2022/09/05 12:48:19;;;;;;;3.80;1.45;;;31.30;33.10;;;;;;5051001;28;20031;-70
2022/09/05 12:51:00;;;;;;;3.05;1.30;;;31.20;33.00;;;;;;5073377;28;20020;-70
2022/09/05 12:53:39;;;;;;;4.00;1.50;;;31.10;33.10;;;;;;5083782;28;20035;-70
2022/09/05 12:56:19;;;;;;;3.85;1.45;;;31.00;33.30;;;;;;5085810;28;20059;-70
2022/09/05 12:58:49;;;;;;;3.85;1.45;;;31.00;33.30;;;;;;5093268;28;20105;-70
2022/09/05 13:01:14;;;;;;;5.60;1.98;;;31.00;33.40;;;;;;5092751;28;20035;-69
2022/09/05 13:03:55;;;;;;;4.13;1.52;;;30.90;33.30;;;;;;5090685;28;20028;-70
2022/09/05 13:06:23;;;;;;;;;;;30.90;33.00;;;;;;5071573;28;20043;-70
2022/09/05 13:08:56;;;;;;;3.35;1.65;;;30.80;33.40;;;;;;5062186;28;19927;-70
2022/09/05 13:11:23;;;;;;;3.03;1.27;;;30.70;33.40;;;;;;5088811;28;20021;-70
2022/09/05 13:13:59;;;;;;;4.13;1.58;;;30.60;33.50;;;;;;5090638;28;20089;-69
2022/09/05 13:16:28;;;;;;;4.68;1.40;;;30.60;33.40;;;;;;5081790;28;20372;-69
2022/09/05 13:19:06;;;;;;;4.05;1.40;;;30.50;33.30;;;;;;5076285;28;20062;-69
2022/09/05 13:21:38;;;;;;;4.07;1.40;;;30.50;33.40;;;;;;5088264;28;20027;-68
2022/09/05 13:24:20;;;;;;;4.15;1.83;;;30.40;33.70;;;;;;5085979;28;20036;-68
2022/09/05 13:26:57;;;;;;;4.40;1.80;;;30.40;34.00;;;;;;5075074;28;20142;-67
2022/09/05 13:29:47;;;;;;;4.72;1.50;;;30.30;33.90;;;;;;5076898;28;20043;-68
2022/09/05 13:33:01;;;;;;;2.60;1.20;;;30.20;33.70;;;;;;5078687;28;20039;-68
2022/09/05 13:35:32;;;;;;;3.13;1.60;;;30.20;33.80;;;;;;5062007;28;20055;-68
2022/09/05 13:38:12;;;;;;;4.47;1.67;;;30.10;33.70;;;;;;5093543;28;20028;-69
2022/09/05 13:40:50;;;;;;;4.72;1.60;;;30.10;33.90;;;;;;5067164;28;20081;-68
2022/09/05 13:43:23;;;;;;;3.70;1.50;;;30.10;33.80;;;;;;5072062;28;20130;-68
2022/09/05 13:46:03;;;;;;;3.03;1.45;;;30.00;33.70;;;;;;5068068;28;20069;-68
2022/09/05 13:48:44;;;;;;;3.58;1.35;;;30.00;33.50;;;;;;5076471;28;20391;-68
2022/09/05 13:51:26;;;;;;;4.10;1.98;;;29.90;33.60;;;;;;5071665;28;20035;-68
2022/09/05 13:54:20;;;;;;;4.03;1.55;;;29.90;33.70;;;;;;5089148;28;20386;-68
2022/09/05 13:57:15;;;;;;;3.67;1.70;;;29.80;33.90;;;;;;5086707;28;20357;-69
2022/09/05 13:59:42;;;;;;;4.25;1.58;;;29.80;34.00;;;;;;5070688;28;20151;-68
2022/09/05 14:02:47;;;;;;;4.53;1.92;;;29.80;34.20;;;;;;5080475;28;20414;-68
2022/09/05 14:05:45;;;;;;;4.13;1.70;;;29.70;34.00;;;;;;5024422;28;20136;-69